Jmst, North Dakota
Current Conditions -  °F | °C
As of 8:56 AM on Saturday 25 Oct 2014 (Local Time) from KJMS Reporting Station
Overcast Overcast  
Wind Chill: 37°   Ceiling: 12000
Heat Index: 42°   Visibility: 10mi
Dew Point: 34°   Wind: 8mph
Humidity: 73%   Direction: 270°W
Pressure: 30.12"   Gusts: NA
Location:  46.8494°N, 98.7424°W
Report Text: KJMS 251356Z AUTO 27007KT 10SM OVC120 06/01 A3012 RMK AO2 SLP210 T00560011
Loading
Personal Weather Stations






























Interactive Weather Map
Tropical Storm Tracking
New forecast layout! Learn more

10-Day Weather Forecast

Advertisements
Track Severe Weather on mobile